sensor_id;sensor_type;location;lat;lon;timestamp;P1;durP1;ratioP1;P2;durP2;ratioP2
16139;SDS011;8175;49.326;12.690;2023-11-22T16:06:49;28.30;;;18.73;;
16139;SDS011;8175;49.326;12.690;2023-11-22T16:09:15;30.07;;;19.03;;
16139;SDS011;8175;49.326;12.690;2023-11-22T16:11:41;34.87;;;22.03;;
16139;SDS011;8175;49.326;12.690;2023-11-22T16:14:07;31.43;;;18.80;;
16139;SDS011;8175;49.326;12.690;2023-11-22T16:16:32;29.80;;;18.30;;
16139;SDS011;8175;49.326;12.690;2023-11-22T16:18:58;27.90;;;19.20;;
16139;SDS011;8175;49.326;12.690;2023-11-22T16:21:23;30.63;;;18.83;;
16139;SDS011;8175;49.326;12.690;2023-11-22T16:23:49;25.27;;;17.60;;
16139;SDS011;8175;49.326;12.690;2023-11-22T16:26:15;23.40;;;15.90;;
16139;SDS011;8175;49.326;12.690;2023-11-22T16:28:42;26.77;;;15.80;;
16139;SDS011;8175;49.326;12.690;2023-11-22T16:31:08;24.17;;;16.70;;
16139;SDS011;8175;49.326;12.690;2023-11-22T16:33:36;24.43;;;16.73;;
16139;SDS011;8175;49.326;12.690;2023-11-22T16:36:02;25.57;;;17.90;;
16139;SDS011;8175;49.326;12.690;2023-11-22T16:38:27;27.30;;;18.67;;
16139;SDS011;8175;49.326;12.690;2023-11-22T16:40:53;28.37;;;17.80;;
16139;SDS011;8175;49.326;12.690;2023-11-22T16:43:19;24.07;;;17.10;;
16139;SDS011;8175;49.326;12.690;2023-11-22T16:45:48;25.60;;;16.33;;
16139;SDS011;8175;49.326;12.690;2023-11-22T16:48:15;24.20;;;16.53;;
16139;SDS011;8175;49.326;12.690;2023-11-22T16:50:41;22.90;;;15.40;;
16139;SDS011;8175;49.326;12.690;2023-11-22T16:53:07;26.60;;;16.90;;
16139;SDS011;8175;49.326;12.690;2023-11-22T16:55:34;22.33;;;15.43;;
16139;SDS011;8175;49.326;12.690;2023-11-22T16:58:00;28.13;;;17.43;;
16139;SDS011;8175;49.326;12.690;2023-11-22T17:00:27;25.53;;;17.63;;
16139;SDS011;8175;49.326;12.690;2023-11-22T17:02:54;25.97;;;15.10;;
16139;SDS011;8175;49.326;12.690;2023-11-22T17:05:24;31.27;;;19.53;;
16139;SDS011;8175;49.326;12.690;2023-11-22T17:07:50;32.57;;;20.83;;
16139;SDS011;8175;49.326;12.690;2023-11-22T17:10:16;33.77;;;22.70;;
16139;SDS011;8175;49.326;12.690;2023-11-22T17:12:42;31.03;;;19.53;;
16139;SDS011;8175;49.326;12.690;2023-11-22T17:15:08;27.57;;;18.00;;
16139;SDS011;8175;49.326;12.690;2023-11-22T17:17:34;30.77;;;19.80;;
16139;SDS011;8175;49.326;12.690;2023-11-22T17:20:00;36.43;;;23.40;;
16139;SDS011;8175;49.326;12.690;2023-11-22T17:22:30;29.97;;;20.07;;
16139;SDS011;8175;49.326;12.690;2023-11-22T17:24:57;28.40;;;19.57;;
16139;SDS011;8175;49.326;12.690;2023-11-22T17:27:23;26.47;;;17.47;;
16139;SDS011;8175;49.326;12.690;2023-11-22T17:29:49;22.53;;;15.43;;
16139;SDS011;8175;49.326;12.690;2023-11-22T17:32:19;24.53;;;15.70;;
16139;SDS011;8175;49.326;12.690;2023-11-22T17:34:45;31.67;;;19.63;;
16139;SDS011;8175;49.326;12.690;2023-11-22T17:37:11;37.50;;;23.77;;
16139;SDS011;8175;49.326;12.690;2023-11-22T17:39:36;34.40;;;21.83;;
16139;SDS011;8175;49.326;12.690;2023-11-22T17:42:02;26.47;;;16.97;;
16139;SDS011;8175;49.326;12.690;2023-11-22T17:44:28;28.77;;;17.77;;
16139;SDS011;8175;49.326;12.690;2023-11-22T17:46:53;25.00;;;16.27;;
16139;SDS011;8175;49.326;12.690;2023-11-22T17:49:19;29.30;;;18.23;;
16139;SDS011;8175;49.326;12.690;2023-11-22T17:51:46;26.10;;;17.33;;
16139;SDS011;8175;49.326;12.690;2023-11-22T17:54:19;34.00;;;21.73;;
16139;SDS011;8175;49.326;12.690;2023-11-22T17:56:47;25.00;;;16.87;;
16139;SDS011;8175;49.326;12.690;2023-11-22T17:59:13;42.07;;;27.07;;
16139;SDS011;8175;49.326;12.690;2023-11-22T18:01:39;53.53;;;32.43;;
16139;SDS011;8175;49.326;12.690;2023-11-22T18:04:05;150.10;;;75.13;;
16139;SDS011;8175;49.326;12.690;2023-11-22T18:06:31;49.03;;;29.47;;
16139;SDS011;8175;49.326;12.690;2023-11-22T18:08:57;33.23;;;21.30;;
16139;SDS011;8175;49.326;12.690;2023-11-22T18:11:26;115.93;;;62.03;;
16139;SDS011;8175;49.326;12.690;2023-11-22T18:13:52;110.93;;;59.20;;
16139;SDS011;8175;49.326;12.690;2023-11-22T18:16:18;108.17;;;58.33;;
16139;SDS011;8175;49.326;12.690;2023-11-22T18:18:44;54.63;;;33.30;;
16139;SDS011;8175;49.326;12.690;2023-11-22T18:21:10;31.93;;;22.13;;
16139;SDS011;8175;49.326;12.690;2023-11-22T18:23:38;21.93;;;15.93;;
16139;SDS011;8175;49.326;12.690;2023-11-22T18:26:07;21.17;;;15.13;;
16139;SDS011;8175;49.326;12.690;2023-11-22T18:28:39;22.10;;;15.27;;
16139;SDS011;8175;49.326;12.690;2023-11-22T18:31:05;20.70;;;14.97;;
16139;SDS011;8175;49.326;12.690;2023-11-22T18:33:31;28.10;;;18.97;;
16139;SDS011;8175;49.326;12.690;2023-11-22T18:35:58;24.40;;;16.97;;
16139;SDS011;8175;49.326;12.690;2023-11-22T18:38:23;25.50;;;17.10;;
16139;SDS011;8175;49.326;12.690;2023-11-22T18:40:49;20.90;;;15.13;;
16139;SDS011;8175;49.326;12.690;2023-11-22T18:43:17;26.50;;;17.53;;
16139;SDS011;8175;49.326;12.690;2023-11-22T18:45:43;23.90;;;15.53;;
16139;SDS011;8175;49.326;12.690;2023-11-22T18:48:12;31.77;;;22.13;;
16139;SDS011;8175;49.326;12.690;2023-11-22T18:50:38;21.50;;;14.83;;
16139;SDS011;8175;49.326;12.690;2023-11-22T18:53:04;15.57;;;11.40;;
16139;SDS011;8175;49.326;12.690;2023-11-22T18:55:30;11.87;;;9.63;;
16139;SDS011;8175;49.326;12.690;2023-11-22T18:57:56;16.60;;;13.30;;
16139;SDS011;8175;49.326;12.690;2023-11-22T19:00:22;16.03;;;12.20;;
16139;SDS011;8175;49.326;12.690;2023-11-22T19:02:47;15.80;;;11.40;;
16139;SDS011;8175;49.326;12.690;2023-11-22T19:05:13;14.87;;;11.40;;
16139;SDS011;8175;49.326;12.690;2023-11-22T19:07:39;16.83;;;11.53;;
16139;SDS011;8175;49.326;12.690;2023-11-22T19:10:07;16.37;;;11.40;;
16139;SDS011;8175;49.326;12.690;2023-11-22T19:12:33;14.57;;;11.30;;
16139;SDS011;8175;49.326;12.690;2023-11-22T19:14:59;13.90;;;10.90;;
16139;SDS011;8175;49.326;12.690;2023-11-22T19:17:25;12.80;;;10.50;;
16139;SDS011;8175;49.326;12.690;2023-11-22T19:19:50;13.83;;;10.47;;
16139;SDS011;8175;49.326;12.690;2023-11-22T19:22:16;13.60;;;10.83;;
16139;SDS011;8175;49.326;12.690;2023-11-22T19:24:41;17.67;;;14.47;;
16139;SDS011;8175;49.326;12.690;2023-11-22T19:27:07;21.13;;;15.20;;
16139;SDS011;8175;49.326;12.690;2023-11-22T19:29:36;34.77;;;22.77;;
16139;SDS011;8175;49.326;12.690;2023-11-22T19:32:03;15.53;;;11.73;;
16139;SDS011;8175;49.326;12.690;2023-11-22T19:34:29;14.90;;;11.97;;
16139;SDS011;8175;49.326;12.690;2023-11-22T19:36:55;13.20;;;9.97;;
16139;SDS011;8175;49.326;12.690;2023-11-22T19:39:21;17.47;;;11.63;;
16139;SDS011;8175;49.326;12.690;2023-11-22T19:41:47;18.00;;;12.63;;
16139;SDS011;8175;49.326;12.690;2023-11-22T19:44:13;20.83;;;12.23;;
16139;SDS011;8175;49.326;12.690;2023-11-22T19:46:40;10.90;;;9.00;;
16139;SDS011;8175;49.326;12.690;2023-11-22T19:49:05;13.80;;;9.93;;
16139;SDS011;8175;49.326;12.690;2023-11-22T19:51:33;13.37;;;9.93;;
16139;SDS011;8175;49.326;12.690;2023-11-22T19:53:58;14.70;;;10.73;;
16139;SDS011;8175;49.326;12.690;2023-11-22T19:56:27;14.07;;;10.83;;
16139;SDS011;8175;49.326;12.690;2023-11-22T19:58:52;12.13;;;8.70;;
16139;SDS011;8175;49.326;12.690;2023-11-22T20:01:18;11.37;;;9.43;;
16139;SDS011;8175;49.326;12.690;2023-11-22T20:03:44;15.13;;;10.33;;
16139;SDS011;8175;49.326;12.690;2023-11-22T20:06:12;13.70;;;9.60;;
16139;SDS011;8175;49.326;12.690;2023-11-22T20:08:38;13.73;;;9.97;;
16139;SDS011;8175;49.326;12.690;2023-11-22T20:11:03;12.77;;;9.97;;
16139;SDS011;8175;49.326;12.690;2023-11-22T20:13:29;14.77;;;10.87;;
16139;SDS011;8175;49.326;12.690;2023-11-22T20:15:55;13.70;;;9.43;;
16139;SDS011;8175;49.326;12.690;2023-11-22T20:18:22;11.60;;;9.77;;
16139;SDS011;8175;49.326;12.690;2023-11-22T20:20:47;13.77;;;11.20;;
16139;SDS011;8175;49.326;12.690;2023-11-22T20:23:13;17.07;;;12.10;;
16139;SDS011;8175;49.326;12.690;2023-11-22T20:25:42;11.87;;;8.47;;
16139;SDS011;8175;49.326;12.690;2023-11-22T20:28:09;11.30;;;9.00;;
16139;SDS011;8175;49.326;12.690;2023-11-22T20:30:34;13.40;;;10.53;;
16139;SDS011;8175;49.326;12.690;2023-11-22T20:33:00;13.73;;;9.80;;
16139;SDS011;8175;49.326;12.690;2023-11-22T20:35:26;14.73;;;11.07;;
16139;SDS011;8175;49.326;12.690;2023-11-22T20:37:51;13.67;;;8.93;;
16139;SDS011;8175;49.326;12.690;2023-11-22T20:40:20;16.83;;;10.57;;
16139;SDS011;8175;49.326;12.690;2023-11-22T20:42:46;13.30;;;9.67;;
16139;SDS011;8175;49.326;12.690;2023-11-22T20:45:11;14.97;;;10.13;;
16139;SDS011;8175;49.326;12.690;2023-11-22T20:47:37;16.80;;;11.13;;
16139;SDS011;8175;49.326;12.690;2023-11-22T20:50:05;12.37;;;8.93;;
16139;SDS011;8175;49.326;12.690;2023-11-22T20:52:31;16.00;;;11.90;;
16139;SDS011;8175;49.326;12.690;2023-11-22T20:54:57;16.57;;;11.07;;
16139;SDS011;8175;49.326;12.690;2023-11-22T20:57:23;15.93;;;11.03;;
16139;SDS011;8175;49.326;12.690;2023-11-22T20:59:48;17.43;;;11.70;;
16139;SDS011;8175;49.326;12.690;2023-11-22T21:02:15;17.27;;;11.43;;
16139;SDS011;8175;49.326;12.690;2023-11-22T21:04:41;18.70;;;11.93;;
16139;SDS011;8175;49.326;12.690;2023-11-22T21:07:07;17.50;;;11.97;;
16139;SDS011;8175;49.326;12.690;2023-11-22T21:09:36;13.93;;;10.23;;
16139;SDS011;8175;49.326;12.690;2023-11-22T21:12:02;15.93;;;10.67;;
16139;SDS011;8175;49.326;12.690;2023-11-22T21:14:28;17.97;;;12.27;;
16139;SDS011;8175;49.326;12.690;2023-11-22T21:16:54;17.00;;;12.23;;
16139;SDS011;8175;49.326;12.690;2023-11-22T21:19:20;15.77;;;11.07;;
16139;SDS011;8175;49.326;12.690;2023-11-22T21:21:46;16.53;;;10.73;;
16139;SDS011;8175;49.326;12.690;2023-11-22T21:24:12;14.67;;;10.60;;
16139;SDS011;8175;49.326;12.690;2023-11-22T21:26:37;18.47;;;13.43;;
16139;SDS011;8175;49.326;12.690;2023-11-22T21:29:03;13.57;;;10.43;;
16139;SDS011;8175;49.326;12.690;2023-11-22T21:31:29;13.93;;;11.10;;
16139;SDS011;8175;49.326;12.690;2023-11-22T21:33:55;13.53;;;10.80;;
16139;SDS011;8175;49.326;12.690;2023-11-22T21:36:20;16.50;;;11.10;;
16139;SDS011;8175;49.326;12.690;2023-11-22T21:38:47;13.20;;;10.30;;
16139;SDS011;8175;49.326;12.690;2023-11-22T21:41:12;13.60;;;10.13;;
16139;SDS011;8175;49.326;12.690;2023-11-22T21:43:38;17.83;;;10.47;;
16139;SDS011;8175;49.326;12.690;2023-11-22T21:46:05;15.13;;;10.37;;
16139;SDS011;8175;49.326;12.690;2023-11-22T21:48:32;19.17;;;13.73;;
16139;SDS011;8175;49.326;12.690;2023-11-22T21:50:57;33.83;;;23.70;;
16139;SDS011;8175;49.326;12.690;2023-11-22T21:53:23;17.90;;;11.87;;
16139;SDS011;8175;49.326;12.690;2023-11-22T21:55:49;15.07;;;11.03;;
16139;SDS011;8175;49.326;12.690;2023-11-22T21:58:15;15.77;;;10.90;;
16139;SDS011;8175;49.326;12.690;2023-11-22T22:00:42;13.97;;;10.23;;
16139;SDS011;8175;49.326;12.690;2023-11-22T22:03:08;14.10;;;9.70;;
16139;SDS011;8175;49.326;12.690;2023-11-22T22:05:34;12.17;;;9.63;;
16139;SDS011;8175;49.326;12.690;2023-11-22T22:08:00;13.63;;;9.87;;
16139;SDS011;8175;49.326;12.690;2023-11-22T22:10:26;14.43;;;10.37;;
16139;SDS011;8175;49.326;12.690;2023-11-22T22:12:52;14.80;;;10.73;;
16139;SDS011;8175;49.326;12.690;2023-11-22T22:15:17;15.30;;;10.77;;
16139;SDS011;8175;49.326;12.690;2023-11-22T22:17:45;13.27;;;9.83;;
16139;SDS011;8175;49.326;12.690;2023-11-22T22:20:11;14.60;;;10.00;;
16139;SDS011;8175;49.326;12.690;2023-11-22T22:22:37;14.60;;;10.30;;
16139;SDS011;8175;49.326;12.690;2023-11-22T22:25:03;14.90;;;11.17;;
16139;SDS011;8175;49.326;12.690;2023-11-22T22:27:29;15.17;;;10.60;;
16139;SDS011;8175;49.326;12.690;2023-11-22T22:29:54;15.63;;;10.00;;
16139;SDS011;8175;49.326;12.690;2023-11-22T22:32:20;14.77;;;10.50;;
16139;SDS011;8175;49.326;12.690;2023-11-22T22:34:46;13.77;;;10.47;;
16139;SDS011;8175;49.326;12.690;2023-11-22T22:37:11;16.70;;;11.13;;
16139;SDS011;8175;49.326;12.690;2023-11-22T22:39:37;14.13;;;9.83;;
16139;SDS011;8175;49.326;12.690;2023-11-22T22:42:03;16.27;;;11.23;;
16139;SDS011;8175;49.326;12.690;2023-11-22T22:44:28;16.37;;;11.20;;
16139;SDS011;8175;49.326;12.690;2023-11-22T22:46:54;15.00;;;10.73;;
16139;SDS011;8175;49.326;12.690;2023-11-22T22:49:20;16.27;;;10.60;;
16139;SDS011;8175;49.326;12.690;2023-11-22T22:51:45;15.17;;;10.73;;
16139;SDS011;8175;49.326;12.690;2023-11-22T22:54:11;13.93;;;9.93;;
16139;SDS011;8175;49.326;12.690;2023-11-22T22:56:36;13.40;;;9.53;;
16139;SDS011;8175;49.326;12.690;2023-11-22T22:59:02;14.33;;;10.33;;
16139;SDS011;8175;49.326;12.690;2023-11-22T23:01:30;14.00;;;10.20;;
16139;SDS011;8175;49.326;12.690;2023-11-22T23:03:56;14.57;;;10.07;;
16139;SDS011;8175;49.326;12.690;2023-11-22T23:06:24;13.00;;;9.30;;
16139;SDS011;8175;49.326;12.690;2023-11-22T23:08:51;11.53;;;9.90;;
16139;SDS011;8175;49.326;12.690;2023-11-22T23:11:21;11.87;;;9.33;;
16139;SDS011;8175;49.326;12.690;2023-11-22T23:13:48;12.70;;;9.57;;
16139;SDS011;8175;49.326;12.690;2023-11-22T23:16:15;12.63;;;8.80;;
16139;SDS011;8175;49.326;12.690;2023-11-22T23:18:41;12.07;;;9.80;;
16139;SDS011;8175;49.326;12.690;2023-11-22T23:21:07;12.57;;;9.33;;
16139;SDS011;8175;49.326;12.690;2023-11-22T23:23:34;11.50;;;8.70;;
16139;SDS011;8175;49.326;12.690;2023-11-22T23:26:00;13.23;;;9.43;;
16139;SDS011;8175;49.326;12.690;2023-11-22T23:28:26;11.73;;;9.17;;
16139;SDS011;8175;49.326;12.690;2023-11-22T23:30:52;12.00;;;9.40;;
16139;SDS011;8175;49.326;12.690;2023-11-22T23:33:17;12.73;;;10.30;;
16139;SDS011;8175;49.326;12.690;2023-11-22T23:35:43;12.17;;;9.50;;
16139;SDS011;8175;49.326;12.690;2023-11-22T23:38:10;12.90;;;8.93;;
16139;SDS011;8175;49.326;12.690;2023-11-22T23:40:35;12.80;;;9.60;;
16139;SDS011;8175;49.326;12.690;2023-11-22T23:43:01;14.13;;;10.47;;
16139;SDS011;8175;49.326;12.690;2023-11-22T23:45:28;16.10;;;10.50;;
16139;SDS011;8175;49.326;12.690;2023-11-22T23:47:57;14.37;;;9.13;;
16139;SDS011;8175;49.326;12.690;2023-11-22T23:50:23;11.90;;;9.93;;
16139;SDS011;8175;49.326;12.690;2023-11-22T23:52:49;14.93;;;10.47;;
16139;SDS011;8175;49.326;12.690;2023-11-22T23:55:16;13.90;;;9.87;;
16139;SDS011;8175;49.326;12.690;2023-11-22T23:57:43;13.20;;;9.90;;
